Star Princess — ZCDD6 — position and weather

sailwx.info

Track history (hours):
 
Tides and Currents Weather Stations Pressure Air Temp Water Temp Dewpoint Dewpoint Depression Visibility Wind Speed Wind Dir Waves Ship Positions

Star Princess

Operator: Princess Cruises

Last reported at 2014-Oct-31 06:00 UTC. Time now 2014-Nov-01 06:39 UTC.
Position N 23°00' W 108°24'.

Length 289.6 m; beam 36 m; draft 8.4 m.

Type: Ship. MMSI: 310361000.

Wind from 330 at 13 knots

Barometer 1015.6 mb
Air temperature 27.4 ° C
Visibility: greater than 10.8 NM
Dewpoint 21.9 ° C
Water temperature 30.0 ° C

Date/timePositionNaut miles runAvg speedWind from/ knotsBaromVisibWave heightAir tempDewpointWater temp
2014-Oct-31 06:00N 23°00' W 108°24'186 7.7 330 / 131015.610.8 27.421.930.0
2014-Oct-30 06:00N 25°30' W 110°24'79 3.3 010 / 131017.810.8 25.921.430.0
2014-Oct-29 06:00N 24°24' W 109°36'117 4.9 190 / 171016.910.8 26.322.029.0
2014-Oct-28 06:00N 24°00' W 111°42'46419.3 360 / 91016.810.8 23.818.128.0
2014-Oct-27 06:00N 29°54' W 117°18'37120.0 020 / 141018.010.8 18.614.523.0
2014-Oct-26 11:25N 34°53' W 121°39'1619.0
2014-Oct-26 10:33N 35°07' W 121°49'1919.2
2014-Oct-26 09:33N 35°24' W 122°01'1919.0
2014-Oct-26 08:33N 35°40' W 122°13'1918.9
2014-Oct-26 07:33N 35°56' W 122°25'1918.5
2014-Oct-26 06:33N 36°12' W 122°37'1818.0
2014-Oct-26 05:33N 36°28' W 122°47'1717.2
2014-Oct-26 04:33N 36°45' W 122°50'1615.5
2014-Oct-26 03:31N 37°01' W 122°51'1414.8
2014-Oct-26 02:33N 37°15' W 122°46'1515.4
2014-Oct-26 01:33N 37°30' W 122°43'1514.6
2014-Oct-26 00:33N 37°45' W 122°40'1313.0
2014-Oct-25 23:33N 37°49' W 122°25'1 0.7
2014-Oct-25 22:31N 37°48' W 122°24'0 0.0
2014-Oct-25 21:34N 37°48' W 122°24'0 0.0
2014-Oct-25 20:33N 37°48' W 122°24'0 0.0
2014-Oct-25 19:33N 37°48' W 122°24'0 0.0
2014-Oct-25 18:26N 37°48' W 122°24'0 0.0
2014-Oct-25 17:32N 37°48' W 122°24'0 0.0
2014-Oct-25 16:31N 37°48' W 122°24'0 0.0
2014-Oct-25 15:31N 37°48' W 122°24'0 0.0
2014-Oct-25 14:33N 37°48' W 122°24'0 0.1
2014-Oct-25 13:33N 37°48' W 122°24'2 2.0
2014-Oct-25 12:33N 37°49' W 122°26'1312.6
2014-Oct-25 11:33N 37°44' W 122°41'1211.5
2014-Oct-25 10:33N 37°33' W 122°40'1212.2
2014-Oct-25 09:32N 37°20' W 122°40'2612.1
2014-Oct-25 07:21N 36°55' W 122°50'1012.3
2014-Oct-25 06:33N 36°48' W 122°58'1312.4
2014-Oct-25 05:31N 36°39' W 123°10'3812.5
2014-Oct-25 02:29N 36°12' W 123°44'1212.9
2014-Oct-25 01:33N 36°04' W 123°54'1212.0
2014-Oct-25 00:33N 35°53' W 124°00'1212.5
2014-Oct-24 23:33N 35°41' W 124°00'1212.3
2014-Oct-24 22:33N 35°28' W 124°00'1312.5
2014-Oct-24 21:32N 35°15' W 123°60'1312.6
2014-Oct-24 20:31N 35°03' W 123°60'1312.4
2014-Oct-24 19:30N 34°50' W 123°60'10111.2
2014-Oct-24 10:30N 34°30' W 121°59'1212.5
2014-Oct-24 09:32N 34°29' W 121°45'1612.3
2014-Oct-24 08:13N 34°30' W 121°25'812.1
2014-Oct-24 07:32N 34°30' W 121°15'1212.5
2014-Oct-24 06:33N 34°28' W 121°00'1119.4
2014-Oct-24 06:00N 34°24' W 120°48'2 4.7 260 / 111018.410.8 18.016.218.0
2014-Oct-24 05:33N 34°25' W 120°46'1212.4
2014-Oct-24 04:33N 34°22' W 120°31'1212.5
2014-Oct-24 03:33N 34°19' W 120°16'1312.6
2014-Oct-24 02:33N 34°20' W 120°01'1312.6
2014-Oct-24 01:33N 34°22' W 119°46'5 4.5
2014-Oct-24 00:31N 34°24' W 119°41'0 0.0
2014-Oct-23 23:33N 34°24' W 119°41'0 0.0
2014-Oct-23 22:33N 34°24' W 119°41'0 0.0
2014-Oct-23 21:32N 34°24' W 119°41'0 0.0
2014-Oct-23 20:29N 34°24' W 119°41'0 0.0
2014-Oct-23 19:31N 34°24' W 119°41'0 0.0
2014-Oct-23 18:31N 34°24' W 119°41'0 0.0
2014-Oct-23 17:31N 34°24' W 119°41'0 0.0
2014-Oct-23 16:33N 34°24' W 119°41'0 0.0
2014-Oct-23 15:33N 34°24' W 119°41'0 0.0
2014-Oct-23 14:34N 34°24' W 119°41'2 1.7
2014-Oct-23 13:33N 34°22' W 119°40'1212.0
2014-Oct-23 12:33N 34°11' W 119°36'1212.2
2014-Oct-23 11:34N 34°06' W 119°22'1212.4
2014-Oct-23 10:33N 34°01' W 119°09'1111.2
2014-Oct-23 09:34N 33°51' W 119°03'1414.4
2014-Oct-23 08:33N 33°38' W 118°54'1717.0
2014-Oct-23 07:33N 33°24' W 118°43'1716.6
2014-Oct-23 06:33N 33°14' W 118°28'1119.7
2014-Oct-23 06:00N 33°06' W 118°18'511.9 170 / 141018.410.8 20.218.122.0
2014-Oct-23 05:33N 33°03' W 118°13'1616.4
2014-Oct-23 04:33N 32°55' W 117°56'1616.4
2014-Oct-23 03:33N 32°47' W 117°39'1515.4
2014-Oct-23 02:33N 32°39' W 117°23'8 7.8
2014-Oct-23 01:33N 32°41' W 117°14'3 3.2
2014-Oct-23 00:32N 32°43' W 117°10'0 0.0
2014-Oct-22 23:31N 32°43' W 117°10'0 0.0
2014-Oct-22 22:31N 32°43' W 117°10'0 0.0
2014-Oct-22 21:33N 32°43' W 117°10'0 0.0
2014-Oct-22 20:33N 32°43' W 117°10'0 0.0
2014-Oct-22 19:32N 32°43' W 117°10'0 0.0
2014-Oct-22 18:32N 32°43' W 117°10'0 0.0
2014-Oct-22 17:32N 32°43' W 117°10'0 0.0
2014-Oct-22 16:28N 32°43' W 117°10'0 0.0
2014-Oct-22 15:31N 32°43' W 117°10'0 0.0
2014-Oct-22 14:31N 32°43' W 117°10'0 0.1
2014-Oct-22 13:33N 32°43' W 117°11'7 7.0
2014-Oct-22 12:33N 32°37' W 117°15'1111.0
2014-Oct-22 11:33N 32°29' W 117°24'1212.4
2014-Oct-22 10:33N 32°22' W 117°36'1211.4
2014-Oct-22 09:31N 32°19' W 117°49'8 8.3
2014-Oct-22 08:33N 32°22' W 117°58'1211.3
2014-Oct-22 07:30N 32°34' W 117°60'1111.5
2014-Oct-22 06:33N 32°44' W 118°01'1111.4
2014-Oct-22 05:33N 32°56' W 118°02'1211.6
2014-Oct-22 04:33N 33°07' W 118°03'1111.3
2014-Oct-22 03:33N 33°18' W 118°06'1211.5
2014-Oct-22 02:33N 33°29' W 118°11'1111.1
2014-Oct-22 01:33N 33°40' W 118°12'5 4.7
2014-Oct-22 00:32N 33°45' W 118°11'0 0.0
2014-Oct-21 23:32N 33°45' W 118°11'0 0.0
2014-Oct-21 22:28N 33°45' W 118°11'0 0.0
2014-Oct-21 21:28N 33°45' W 118°11'0 0.0
2014-Oct-21 20:28N 33°45' W 118°11'0 0.0
2014-Oct-21 19:33N 33°45' W 118°11'0 0.0
2014-Oct-21 18:33N 33°45' W 118°11'0 0.0
2014-Oct-21 17:29N 33°45' W 118°11'0 0.0
2014-Oct-21 16:32N 33°45' W 118°11'0 0.0
2014-Oct-21 15:31N 33°45' W 118°11'0 0.0
2014-Oct-21 14:34N 33°45' W 118°11'0 0.2
2014-Oct-21 13:33N 33°45' W 118°11'5 5.5
2014-Oct-21 12:33N 33°39' W 118°10'1312.4
2014-Oct-21 11:28N 33°27' W 118°06'1212.9
2014-Oct-21 10:32N 33°15' W 118°01'1212.3
2014-Oct-21 09:33N 33°04' W 117°55'1212.2
2014-Oct-21 08:33N 32°53' W 117°49'1212.1
2014-Oct-21 07:33N 32°41' W 117°49'1212.3
2014-Oct-21 06:33N 32°29' W 117°45'1323.7
2014-Oct-21 06:00N 32°18' W 117°36'   210 / 71017.010.8 19.816.522.0
Track history (hours):
 
Tides and Currents Weather Stations Pressure Air Temp Water Temp Dewpoint Dewpoint Depression Visibility Wind Speed Wind Dir Waves Ship Positions

Star Princess

Operator: Princess Cruises

Last reported at 2014-Oct-31 06:00 UTC. Time now 2014-Nov-01 06:39 UTC.
Position N 23°00' W 108°24'.

Length 289.6 m; beam 36 m; draft 8.4 m.

Type: Ship. MMSI: 310361000.

Wind from 330 at 13 knots

Barometer 1015.6 mb
Air temperature 27.4 ° C
Visibility: greater than 10.8 NM
Dewpoint 21.9 ° C
Water temperature 30.0 ° C

Date/timePositionNaut miles runAvg speedWind from/ knotsBaromVisibWave heightAir tempDewpointWater temp
2014-Oct-31 06:00N 23°00' W 108°24'186 7.7 330 / 131015.610.8 27.421.930.0
2014-Oct-30 06:00N 25°30' W 110°24'79 3.3 010 / 131017.810.8 25.921.430.0
2014-Oct-29 06:00N 24°24' W 109°36'117 4.9 190 / 171016.910.8 26.322.029.0
2014-Oct-28 06:00N 24°00' W 111°42'46419.3 360 / 91016.810.8 23.818.128.0
2014-Oct-27 06:00N 29°54' W 117°18'37120.0 020 / 141018.010.8 18.614.523.0
2014-Oct-26 11:25N 34°53' W 121°39'1619.0
2014-Oct-26 10:33N 35°07' W 121°49'1919.2
2014-Oct-26 09:33N 35°24' W 122°01'1919.0
2014-Oct-26 08:33N 35°40' W 122°13'1918.9
2014-Oct-26 07:33N 35°56' W 122°25'1918.5
2014-Oct-26 06:33N 36°12' W 122°37'1818.0
2014-Oct-26 05:33N 36°28' W 122°47'1717.2
2014-Oct-26 04:33N 36°45' W 122°50'1615.5
2014-Oct-26 03:31N 37°01' W 122°51'1414.8
2014-Oct-26 02:33N 37°15' W 122°46'1515.4
2014-Oct-26 01:33N 37°30' W 122°43'1514.6
2014-Oct-26 00:33N 37°45' W 122°40'1313.0
2014-Oct-25 23:33N 37°49' W 122°25'1 0.7
2014-Oct-25 22:31N 37°48' W 122°24'0 0.0
2014-Oct-25 21:34N 37°48' W 122°24'0 0.0
2014-Oct-25 20:33N 37°48' W 122°24'0 0.0
2014-Oct-25 19:33N 37°48' W 122°24'0 0.0
2014-Oct-25 18:26N 37°48' W 122°24'0 0.0
2014-Oct-25 17:32N 37°48' W 122°24'0 0.0
2014-Oct-25 16:31N 37°48' W 122°24'0 0.0
2014-Oct-25 15:31N 37°48' W 122°24'0 0.0
2014-Oct-25 14:33N 37°48' W 122°24'0 0.1
2014-Oct-25 13:33N 37°48' W 122°24'2 2.0
2014-Oct-25 12:33N 37°49' W 122°26'1312.6
2014-Oct-25 11:33N 37°44' W 122°41'1211.5
2014-Oct-25 10:33N 37°33' W 122°40'1212.2
2014-Oct-25 09:32N 37°20' W 122°40'2612.1
2014-Oct-25 07:21N 36°55' W 122°50'1012.3
2014-Oct-25 06:33N 36°48' W 122°58'1312.4
2014-Oct-25 05:31N 36°39' W 123°10'3812.5
2014-Oct-25 02:29N 36°12' W 123°44'1212.9
2014-Oct-25 01:33N 36°04' W 123°54'1212.0
2014-Oct-25 00:33N 35°53' W 124°00'1212.5
2014-Oct-24 23:33N 35°41' W 124°00'1212.3
2014-Oct-24 22:33N 35°28' W 124°00'1312.5
2014-Oct-24 21:32N 35°15' W 123°60'1312.6
2014-Oct-24 20:31N 35°03' W 123°60'1312.4
2014-Oct-24 19:30N 34°50' W 123°60'10111.2
2014-Oct-24 10:30N 34°30' W 121°59'1212.5
2014-Oct-24 09:32N 34°29' W 121°45'1612.3
2014-Oct-24 08:13N 34°30' W 121°25'812.1
2014-Oct-24 07:32N 34°30' W 121°15'1212.5
2014-Oct-24 06:33N 34°28' W 121°00'1119.4
2014-Oct-24 06:00N 34°24' W 120°48'2 4.7 260 / 111018.410.8 18.016.218.0
2014-Oct-24 05:33N 34°25' W 120°46'1212.4
2014-Oct-24 04:33N 34°22' W 120°31'1212.5
2014-Oct-24 03:33N 34°19' W 120°16'1312.6
2014-Oct-24 02:33N 34°20' W 120°01'1312.6
2014-Oct-24 01:33N 34°22' W 119°46'5 4.5
2014-Oct-24 00:31N 34°24' W 119°41'0 0.0
2014-Oct-23 23:33N 34°24' W 119°41'0 0.0
2014-Oct-23 22:33N 34°24' W 119°41'0 0.0
2014-Oct-23 21:32N 34°24' W 119°41'0 0.0
2014-Oct-23 20:29N 34°24' W 119°41'0 0.0
2014-Oct-23 19:31N 34°24' W 119°41'0 0.0
2014-Oct-23 18:31N 34°24' W 119°41'0 0.0
2014-Oct-23 17:31N 34°24' W 119°41'0 0.0
2014-Oct-23 16:33N 34°24' W 119°41'0 0.0
2014-Oct-23 15:33N 34°24' W 119°41'0 0.0
2014-Oct-23 14:34N 34°24' W 119°41'2 1.7
2014-Oct-23 13:33N 34°22' W 119°40'1212.0
2014-Oct-23 12:33N 34°11' W 119°36'1212.2
2014-Oct-23 11:34N 34°06' W 119°22'1212.4
2014-Oct-23 10:33N 34°01' W 119°09'1111.2
2014-Oct-23 09:34N 33°51' W 119°03'1414.4
2014-Oct-23 08:33N 33°38' W 118°54'1717.0
2014-Oct-23 07:33N 33°24' W 118°43'1716.6
2014-Oct-23 06:33N 33°14' W 118°28'1119.7
2014-Oct-23 06:00N 33°06' W 118°18'511.9 170 / 141018.410.8 20.218.122.0
2014-Oct-23 05:33N 33°03' W 118°13'1616.4
2014-Oct-23 04:33N 32°55' W 117°56'1616.4
2014-Oct-23 03:33N 32°47' W 117°39'1515.4
2014-Oct-23 02:33N 32°39' W 117°23'8 7.8
2014-Oct-23 01:33N 32°41' W 117°14'3 3.2
2014-Oct-23 00:32N 32°43' W 117°10'0 0.0
2014-Oct-22 23:31N 32°43' W 117°10'0 0.0
2014-Oct-22 22:31N 32°43' W 117°10'0 0.0
2014-Oct-22 21:33N 32°43' W 117°10'0 0.0
2014-Oct-22 20:33N 32°43' W 117°10'0 0.0
2014-Oct-22 19:32N 32°43' W 117°10'0 0.0
2014-Oct-22 18:32N 32°43' W 117°10'0 0.0
2014-Oct-22 17:32N 32°43' W 117°10'0 0.0
2014-Oct-22 16:28N 32°43' W 117°10'0 0.0
2014-Oct-22 15:31N 32°43' W 117°10'0 0.0
2014-Oct-22 14:31N 32°43' W 117°10'0 0.1
2014-Oct-22 13:33N 32°43' W 117°11'7 7.0
2014-Oct-22 12:33N 32°37' W 117°15'1111.0
2014-Oct-22 11:33N 32°29' W 117°24'1212.4
2014-Oct-22 10:33N 32°22' W 117°36'1211.4
2014-Oct-22 09:31N 32°19' W 117°49'8 8.3
2014-Oct-22 08:33N 32°22' W 117°58'1211.3
2014-Oct-22 07:30N 32°34' W 117°60'1111.5
2014-Oct-22 06:33N 32°44' W 118°01'1111.4
2014-Oct-22 05:33N 32°56' W 118°02'1211.6
2014-Oct-22 04:33N 33°07' W 118°03'1111.3
2014-Oct-22 03:33N 33°18' W 118°06'1211.5
2014-Oct-22 02:33N 33°29' W 118°11'1111.1
2014-Oct-22 01:33N 33°40' W 118°12'5 4.7
2014-Oct-22 00:32N 33°45' W 118°11'0 0.0
2014-Oct-21 23:32N 33°45' W 118°11'0 0.0
2014-Oct-21 22:28N 33°45' W 118°11'0 0.0
2014-Oct-21 21:28N 33°45' W 118°11'0 0.0
2014-Oct-21 20:28N 33°45' W 118°11'0 0.0
2014-Oct-21 19:33N 33°45' W 118°11'0 0.0
2014-Oct-21 18:33N 33°45' W 118°11'0 0.0
2014-Oct-21 17:29N 33°45' W 118°11'0 0.0
2014-Oct-21 16:32N 33°45' W 118°11'0 0.0
2014-Oct-21 15:31N 33°45' W 118°11'0 0.0
2014-Oct-21 14:34N 33°45' W 118°11'0 0.2
2014-Oct-21 13:33N 33°45' W 118°11'5 5.5
2014-Oct-21 12:33N 33°39' W 118°10'1312.4
2014-Oct-21 11:28N 33°27' W 118°06'1212.9
2014-Oct-21 10:32N 33°15' W 118°01'1212.3
2014-Oct-21 09:33N 33°04' W 117°55'1212.2
2014-Oct-21 08:33N 32°53' W 117°49'1212.1
2014-Oct-21 07:33N 32°41' W 117°49'1212.3
2014-Oct-21 06:33N 32°29' W 117°45'1323.7
2014-Oct-21 06:00N 32°18' W 117°36'   210 / 71017.010.8 19.816.522.0

Dump ship's entire track history